Time;durP1;ratioP1;P1;durP2;ratioP2;P2;SDS_P1;SDS_P2;PMS_P1;PMS_P2;Temp;Humidity;BMP_temperature;BMP_pressure;BME280_temperature;BME280_humidity;BME280_pressure;Samples;Min_cycle;Max_cycle;Signal;HPM_P1;HPM_P2
2021/07/06 00:00:23;;;;;;;;;1.00;1.00;;;;;;;;5021666;28;8888;-81
2021/07/06 00:02:50;;;;;;;;;1.00;1.00;;;;;;;;5023568;28;8980;-81
2021/07/06 00:05:18;;;;;;;;;2.20;1.40;;;;;;;;5021290;28;8993;-81
2021/07/06 00:07:47;;;;;;;;;1.00;1.00;;;;;;;;5022268;28;8878;-81
2021/07/06 00:10:16;;;;;;;;;1.00;1.00;;;;;;;;5023388;28;9901;-82
2021/07/06 00:12:44;;;;;;;;;1.20;1.20;;;;;;;;5022690;28;8991;-81
2021/07/06 00:15:13;;;;;;;;;1.00;1.00;;;;;;;;5024874;28;8861;-80
2021/07/06 00:17:41;;;;;;;;;1.00;1.00;;;;;;;;5025276;28;9067;-81
2021/07/06 00:20:10;;;;;;;;;1.00;1.00;;;;;;;;5030140;28;8908;-81
2021/07/06 00:22:38;;;;;;;;;2.80;1.60;;;;;;;;5024932;28;8963;-81
2021/07/06 00:25:08;;;;;;;;;2.40;2.00;;;;;;;;5008098;28;9015;-81
2021/07/06 00:27:36;;;;;;;;;1.00;1.00;;;;;;;;5024621;28;8899;-80
2021/07/06 00:30:04;;;;;;;;;1.00;1.00;;;;;;;;5003965;28;9424;-80
2021/07/06 00:32:31;;;;;;;;;2.00;2.00;;;;;;;;5026765;28;9013;-81
2021/07/06 00:34:58;;;;;;;;;2.00;2.00;;;;;;;;5024770;28;8877;-81
2021/07/06 00:37:26;;;;;;;;;1.00;1.00;;;;;;;;5026198;28;8868;-81
2021/07/06 00:39:53;;;;;;;;;1.60;1.60;;;;;;;;5026166;28;8879;-81
2021/07/06 00:42:22;;;;;;;;;2.40;2.00;;;;;;;;5025989;28;8856;-80
2021/07/06 00:44:49;;;;;;;;;2.00;2.00;;;;;;;;5025365;28;8906;-81
2021/07/06 00:47:17;;;;;;;;;2.00;2.00;;;;;;;;5024691;28;8857;-81
2021/07/06 00:49:44;;;;;;;;;2.20;2.20;;;;;;;;5025237;28;8849;-81
2021/07/06 00:52:11;;;;;;;;;2.20;2.20;;;;;;;;5026013;28;8865;-81
2021/07/06 00:54:38;;;;;;;;;2.20;2.20;;;;;;;;5026588;28;8850;-81
2021/07/06 00:57:06;;;;;;;;;3.00;3.00;;;;;;;;5025231;28;8995;-80
2021/07/06 00:59:35;;;;;;;;;2.00;2.00;;;;;;;;5026824;28;9007;-80
2021/07/06 01:02:02;;;;;;;;;2.20;2.20;;;;;;;;5024191;28;9536;-80
2021/07/06 01:04:29;;;;;;;;;2.80;2.00;;;;;;;;5025816;28;8844;-80
2021/07/06 01:06:56;;;;;;;;;2.00;2.00;;;;;;;;5019135;28;8992;-81
2021/07/06 01:09:23;;;;;;;;;2.00;2.00;;;;;;;;5025961;28;8877;-81
2021/07/06 01:11:52;;;;;;;;;2.00;2.00;;;;;;;;5026165;28;8853;-81
2021/07/06 01:14:22;;;;;;;;;3.00;3.00;;;;;;;;5024320;28;8897;-79
2021/07/06 01:16:50;;;;;;;;;4.20;3.00;;;;;;;;5024742;28;8903;-78
2021/07/06 01:19:19;;;;;;;;;3.40;3.40;;;;;;;;5024816;28;8938;-78
2021/07/06 01:21:46;;;;;;;;;2.00;2.00;;;;;;;;5025617;28;8853;-78
2021/07/06 01:24:15;;;;;;;;;3.00;3.00;;;;;;;;5027522;28;8861;-78
2021/07/06 01:26:42;;;;;;;;;2.00;2.00;;;;;;;;5024199;28;8853;-78
2021/07/06 01:29:09;;;;;;;;;4.00;2.40;;;;;;;;5025744;28;8877;-78
2021/07/06 01:31:36;;;;;;;;;2.00;2.00;;;;;;;;5024938;28;9925;-78
2021/07/06 01:34:04;;;;;;;;;2.40;2.40;;;;;;;;5024252;28;8860;-78
2021/07/06 01:36:31;;;;;;;;;4.00;2.40;;;;;;;;5004487;28;8874;-78
2021/07/06 01:38:58;;;;;;;;;2.00;2.00;;;;;;;;5024516;28;8999;-78
2021/07/06 01:41:27;;;;;;;;;2.40;2.40;;;;;;;;5024676;28;8872;-78
2021/07/06 01:43:55;;;;;;;;;2.80;2.80;;;;;;;;5024705;28;8869;-78
2021/07/06 01:46:22;;;;;;;;;2.40;2.00;;;;;;;;5014309;28;8852;-79
2021/07/06 01:48:49;;;;;;;;;2.00;2.00;;;;;;;;5024363;28;9005;-78
2021/07/06 01:51:16;;;;;;;;;2.00;2.00;;;;;;;;5024757;28;8895;-78
2021/07/06 01:53:44;;;;;;;;;2.60;2.60;;;;;;;;5023420;28;8867;-78
2021/07/06 01:56:11;;;;;;;;;2.40;2.40;;;;;;;;5024655;28;8993;-78
2021/07/06 01:58:40;;;;;;;;;3.00;3.00;;;;;;;;5023758;28;8868;-79
2021/07/06 02:01:07;;;;;;;;;2.00;2.00;;;;;;;;5020782;28;8856;-78
2021/07/06 02:03:35;;;;;;;;;4.00;2.40;;;;;;;;5010590;28;8884;-81
2021/07/06 02:06:02;;;;;;;;;2.40;1.00;;;;;;;;5026388;28;9738;-81
2021/07/06 02:08:29;;;;;;;;;1.40;1.40;;;;;;;;5025448;28;8975;-82
2021/07/06 02:10:59;;;;;;;;;1.60;1.60;;;;;;;;5008101;28;9040;-81
2021/07/06 02:13:26;;;;;;;;;1.00;1.00;;;;;;;;5024965;28;8975;-81
2021/07/06 02:15:57;;;;;;;;;1.00;1.00;;;;;;;;5024541;28;8885;-81
2021/07/06 02:18:27;;;;;;;;;2.00;2.00;;;;;;;;5018995;28;9001;-81
2021/07/06 02:20:56;;;;;;;;;2.00;2.00;;;;;;;;5024752;28;10043;-79
2021/07/06 02:23:24;;;;;;;;;1.00;1.00;;;;;;;;5023146;28;8888;-79
2021/07/06 02:25:53;;;;;;;;;3.00;1.60;;;;;;;;5024258;28;8941;-78
2021/07/06 02:28:21;;;;;;;;;3.00;1.00;;;;;;;;5005148;28;8864;-79
2021/07/06 02:30:48;;;;;;;;;1.00;1.00;;;;;;;;5024204;28;8793;-79
2021/07/06 02:33:18;;;;;;;;;1.00;1.00;;;;;;;;5023709;28;8876;-79
2021/07/06 02:35:45;;;;;;;;;1.00;1.00;;;;;;;;5024070;28;9692;-79
2021/07/06 02:38:13;;;;;;;;;0.00;0.00;;;;;;;;5024288;28;8977;-78
2021/07/06 02:40:40;;;;;;;;;1.40;1.40;;;;;;;;5024390;28;8906;-78
2021/07/06 02:43:08;;;;;;;;;0.00;0.00;;;;;;;;5023149;28;8848;-79
2021/07/06 02:45:36;;;;;;;;;0.60;0.60;;;;;;;;5005950;28;9763;-79
2021/07/06 02:48:03;;;;;;;;;1.00;1.00;;;;;;;;5023760;28;8884;-80
2021/07/06 02:50:32;;;;;;;;;0.60;0.60;;;;;;;;5021600;28;8882;-79
2021/07/06 02:53:00;;;;;;;;;0.00;0.00;;;;;;;;5010020;28;8906;-79
2021/07/06 02:55:27;;;;;;;;;0.40;0.40;;;;;;;;5023893;28;8971;-80
2021/07/06 02:57:55;;;;;;;;;0.80;0.80;;;;;;;;5023893;28;9617;-81
2021/07/06 03:00:24;;;;;;;;;0.80;0.80;;;;;;;;5022194;28;8871;-81
2021/07/06 03:02:54;;;;;;;;;0.00;0.00;;;;;;;;5018232;28;10473;-81
2021/07/06 03:05:22;;;;;;;;;0.40;0.40;;;;;;;;5006985;28;8893;-81
2021/07/06 03:07:52;;;;;;;;;0.00;0.00;;;;;;;;5022454;28;8904;-79
2021/07/06 03:10:22;;;;;;;;;0.20;0.20;;;;;;;;5008775;28;8995;-78
2021/07/06 03:12:49;;;;;;;;;0.00;0.00;;;;;;;;5023229;28;8972;-80
2021/07/06 03:15:18;;;;;;;;;0.60;0.60;;;;;;;;5023731;28;8877;-79
2021/07/06 03:17:46;;;;;;;;;0.00;0.00;;;;;;;;5023768;28;8876;-78
2021/07/06 03:20:14;;;;;;;;;0.00;0.00;;;;;;;;5021863;28;8899;-78
2021/07/06 03:22:42;;;;;;;;;0.00;0.00;;;;;;;;5023718;28;10372;-78
2021/07/06 03:25:15;;;;;;;;;0.20;0.20;;;;;;;;5004858;28;8988;-78
2021/07/06 03:27:43;;;;;;;;;0.00;0.00;;;;;;;;5023117;28;8853;-79
2021/07/06 03:30:13;;;;;;;;;0.80;0.00;;;;;;;;5022724;28;8861;-78
2021/07/06 03:32:40;;;;;;;;;0.00;0.00;;;;;;;;5023210;28;8891;-77
2021/07/06 03:35:09;;;;;;;;;0.00;0.00;;;;;;;;5023167;28;8898;-78
2021/07/06 03:37:37;;;;;;;;;0.00;0.00;;;;;;;;5020971;28;8869;-78
2021/07/06 03:40:06;;;;;;;;;0.00;0.00;;;;;;;;5023749;28;8865;-78
2021/07/06 03:42:35;;;;;;;;;1.00;0.00;;;;;;;;5020001;28;8895;-78
2021/07/06 03:45:02;;;;;;;;;0.00;0.00;;;;;;;;5005815;28;9627;-79
2021/07/06 03:47:30;;;;;;;;;0.00;0.00;;;;;;;;5022349;28;8980;-78
2021/07/06 03:49:57;;;;;;;;;0.00;0.00;;;;;;;;5023178;28;8883;-78
2021/07/06 03:52:25;;;;;;;;;0.00;0.00;;;;;;;;5023202;28;8868;-81
2021/07/06 03:54:52;;;;;;;;;0.00;0.00;;;;;;;;5021869;28;8964;-79
2021/07/06 03:57:28;;;;;;;;;0.00;0.00;;;;;;;;5023624;28;8927;-79
2021/07/06 03:59:57;;;;;;;;;1.00;0.00;;;;;;;;5017480;28;8871;-80
2021/07/06 04:02:24;;;;;;;;;1.20;0.00;;;;;;;;5020354;28;9283;-79
2021/07/06 04:04:52;;;;;;;;;0.00;0.00;;;;;;;;5017118;28;8867;-79
2021/07/06 04:07:20;;;;;;;;;0.00;0.00;;;;;;;;5021992;28;8884;-79
2021/07/06 04:09:47;;;;;;;;;0.00;0.00;;;;;;;;5022422;28;8869;-83
2021/07/06 04:12:15;;;;;;;;;0.00;0.00;;;;;;;;5024447;28;8896;-84
2021/07/06 04:14:42;;;;;;;;;0.00;0.00;;;;;;;;5025040;28;9654;-84
2021/07/06 04:17:11;;;;;;;;;0.00;0.00;;;;;;;;5023143;28;8892;-88
2021/07/06 04:23:10;;;;;;;;;0.00;0.00;;;;;;;;5017044;28;8877;-83
2021/07/06 04:25:37;;;;;;;;;0.00;0.00;;;;;;;;5022921;28;8920;-82
2021/07/06 04:28:05;;;;;;;;;0.00;0.00;;;;;;;;5024681;28;8887;-84
2021/07/06 04:30:32;;;;;;;;;0.00;0.00;;;;;;;;5022191;28;8793;-81
2021/07/06 04:33:01;;;;;;;;;0.00;0.00;;;;;;;;5009813;28;8895;-84
2021/07/06 04:35:29;;;;;;;;;0.00;0.00;;;;;;;;5021974;28;8902;-86
2021/07/06 04:41:18;;;;;;;;;0.00;0.00;;;;;;;;5023079;28;8830;-84
2021/07/06 04:43:46;;;;;;;;;0.00;0.00;;;;;;;;5005679;28;8874;-85
2021/07/06 04:46:13;;;;;;;;;0.00;0.00;;;;;;;;5023807;28;9666;-84
2021/07/06 04:48:42;;;;;;;;;3.75;0.00;;;;;;;;5020663;28;8903;-84
2021/07/06 04:51:10;;;;;;;;;0.00;0.00;;;;;;;;5023714;28;8874;-82
2021/07/06 04:53:39;;;;;;;;;0.00;0.00;;;;;;;;5023678;28;8857;-84
2021/07/06 04:56:06;;;;;;;;;0.00;0.00;;;;;;;;5023309;28;9012;-84
2021/07/06 04:58:35;;;;;;;;;2.00;0.00;;;;;;;;5025062;28;8846;-83
2021/07/06 05:01:02;;;;;;;;;0.50;0.00;;;;;;;;5027695;28;8836;-84
2021/07/06 05:03:30;;;;;;;;;0.25;0.00;;;;;;;;5030306;28;8893;-85
2021/07/06 05:05:59;;;;;;;;;0.00;0.00;;;;;;;;5026986;28;8999;-84
2021/07/06 05:08:27;;;;;;;;;0.00;0.00;;;;;;;;5026612;28;9019;-83
2021/07/06 05:10:54;;;;;;;;;0.00;0.00;;;;;;;;5022576;28;8876;-83
2021/07/06 05:13:24;;;;;;;;;1.50;1.00;;;;;;;;5027146;28;8902;-87
2021/07/06 05:15:52;;;;;;;;;1.75;0.50;;;;;;;;5026437;28;8860;-85
2021/07/06 05:18:19;;;;;;;;;0.00;0.00;;;;;;;;5025810;28;8943;-82
2021/07/06 05:20:47;;;;;;;;;0.50;0.00;;;;;;;;5026713;28;8912;-87
2021/07/06 05:23:16;;;;;;;;;0.00;0.00;;;;;;;;5024756;28;8870;-85
2021/07/06 05:25:43;;;;;;;;;0.00;0.00;;;;;;;;5026588;28;8869;-81
2021/07/06 05:28:11;;;;;;;;;0.00;0.00;;;;;;;;5025359;28;8919;-81
2021/07/06 05:30:38;;;;;;;;;1.00;1.00;;;;;;;;5025162;28;8912;-83
2021/07/06 05:33:06;;;;;;;;;2.00;0.00;;;;;;;;5024884;28;8849;-85
2021/07/06 05:35:33;;;;;;;;;0.00;0.00;;;;;;;;5007572;28;8856;-84
2021/07/06 05:38:02;;;;;;;;;0.50;0.50;;;;;;;;5026029;28;8877;-82
2021/07/06 05:40:33;;;;;;;;;0.00;0.00;;;;;;;;5004755;28;8885;-81
2021/07/06 05:43:00;;;;;;;;;3.50;1.00;;;;;;;;5025985;28;8878;-80
2021/07/06 05:45:27;;;;;;;;;0.00;0.00;;;;;;;;5025130;28;8890;-80
2021/07/06 05:47:54;;;;;;;;;0.00;0.00;;;;;;;;5009208;28;9683;-80
2021/07/06 05:50:22;;;;;;;;;0.00;0.00;;;;;;;;5024204;28;8861;-79
2021/07/06 05:52:49;;;;;;;;;0.00;0.00;;;;;;;;5025484;28;8872;-78
2021/07/06 05:55:16;;;;;;;;;2.25;0.75;;;;;;;;5026100;28;8872;-81
2021/07/06 05:57:45;;;;;;;;;0.00;0.00;;;;;;;;5025099;28;8985;-80
2021/07/06 06:00:14;;;;;;;;;0.00;0.00;;;;;;;;5024953;28;8890;-80
2021/07/06 06:02:41;;;;;;;;;1.50;0.00;;;;;;;;5025137;28;8977;-80
2021/07/06 06:05:10;;;;;;;;;1.00;1.00;;;;;;;;5007663;28;9682;-78
2021/07/06 06:07:41;;;;;;;;;0.75;0.75;;;;;;;;5007049;28;8895;-79
2021/07/06 06:10:10;;;;;;;;;1.50;0.00;;;;;;;;5023356;28;8868;-80
2021/07/06 06:12:38;;;;;;;;;1.50;1.50;;;;;;;;5021126;28;8859;-80
2021/07/06 06:15:10;;;;;;;;;0.75;0.75;;;;;;;;5015152;28;8869;-79
2021/07/06 06:17:38;;;;;;;;;0.50;0.50;;;;;;;;5026140;28;8865;-80
2021/07/06 06:20:08;;;;;;;;;0.25;0.25;;;;;;;;5024173;28;8984;-79
2021/07/06 06:22:35;;;;;;;;;4.75;1.00;;;;;;;;5025352;28;8886;-79
2021/07/06 06:25:03;;;;;;;;;3.00;0.00;;;;;;;;5015162;28;8826;-77
2021/07/06 06:27:31;;;;;;;;;1.50;0.25;;;;;;;;5022709;28;8885;-78
2021/07/06 06:29:58;;;;;;;;;2.50;0.25;;;;;;;;5024525;28;9716;-79
2021/07/06 06:32:27;;;;;;;;;2.75;0.75;;;;;;;;5016693;28;8835;-78
2021/07/06 06:34:54;;;;;;;;;0.75;0.75;;;;;;;;5023232;28;8938;-79
2021/07/06 06:37:22;;;;;;;;;3.25;1.00;;;;;;;;5003039;28;8887;-83
2021/07/06 06:39:49;;;;;;;;;4.50;1.00;;;;;;;;5022642;28;8855;-81
2021/07/06 06:42:16;;;;;;;;;2.00;1.00;;;;;;;;5024465;28;8975;-83
2021/07/06 06:44:44;;;;;;;;;1.00;1.00;;;;;;;;5004835;28;8889;-79
2021/07/06 06:47:11;;;;;;;;;2.00;0.50;;;;;;;;5005091;28;10014;-78
2021/07/06 06:49:40;;;;;;;;;0.75;0.75;;;;;;;;5018483;28;8938;-79
2021/07/06 06:52:08;;;;;;;;;0.00;0.00;;;;;;;;5005961;28;8865;-77
2021/07/06 06:54:35;;;;;;;;;0.75;0.75;;;;;;;;5019810;28;8858;-81
2021/07/06 06:57:03;;;;;;;;;1.00;1.00;;;;;;;;5005640;28;8966;-78
2021/07/06 06:59:30;;;;;;;;;2.00;0.50;;;;;;;;5021572;28;8882;-79
2021/07/06 07:04:44;;;;;;;;;2.00;0.75;;;;;;;;5021529;28;8797;-81
2021/07/06 07:07:12;;;;;;;;;2.00;1.00;;;;;;;;5021338;28;8942;-82
2021/07/06 07:09:39;;;;;;;;;0.00;0.00;;;;;;;;5022554;28;9805;-79
2021/07/06 07:12:07;;;;;;;;;0.75;0.75;;;;;;;;5021358;28;8959;-79
2021/07/06 07:14:35;;;;;;;;;0.00;0.00;;;;;;;;5021596;28;8884;-81
2021/07/06 07:17:02;;;;;;;;;1.50;1.00;;;;;;;;5022746;28;8843;-82
2021/07/06 07:19:30;;;;;;;;;1.00;1.00;;;;;;;;5020231;28;9634;-79
2021/07/06 07:21:59;;;;;;;;;0.50;0.50;;;;;;;;5005411;28;8864;-77
2021/07/06 07:24:26;;;;;;;;;2.00;1.00;;;;;;;;5002476;28;9503;-81
2021/07/06 07:26:54;;;;;;;;;2.25;1.00;;;;;;;;5023579;28;8888;-76
2021/07/06 07:29:21;;;;;;;;;3.00;1.00;;;;;;;;5022846;28;8987;-82
2021/07/06 07:31:48;;;;;;;;;1.00;1.00;;;;;;;;5023196;28;8959;-82
2021/07/06 07:34:16;;;;;;;;;1.75;0.75;;;;;;;;5011316;28;8866;-83
2021/07/06 07:36:43;;;;;;;;;0.00;0.00;;;;;;;;5005523;28;8919;-83
2021/07/06 07:39:12;;;;;;;;;1.00;1.00;;;;;;;;5021499;28;8902;-87
2021/07/06 07:41:39;;;;;;;;;2.75;1.00;;;;;;;;5006166;28;9571;-81
2021/07/06 07:44:07;;;;;;;;;1.00;1.00;;;;;;;;5030098;28;8854;-82
2021/07/06 07:46:34;;;;;;;;;0.00;0.00;;;;;;;;5022535;28;9603;-81
2021/07/06 07:49:02;;;;;;;;;0.25;0.25;;;;;;;;5024013;28;8868;-81
2021/07/06 07:51:29;;;;;;;;;1.25;0.75;;;;;;;;5022829;28;8891;-84
2021/07/06 07:53:56;;;;;;;;;0.25;0.25;;;;;;;;5023777;28;8919;-83
2021/07/06 07:56:25;;;;;;;;;3.50;1.00;;;;;;;;5027844;28;8871;-84
2021/07/06 07:58:52;;;;;;;;;3.00;1.75;;;;;;;;5005543;28;8890;-82
2021/07/06 08:01:20;;;;;;;;;0.50;0.25;;;;;;;;5024103;28;8843;-83
2021/07/06 08:03:47;;;;;;;;;1.00;1.00;;;;;;;;5022249;28;8864;-82
2021/07/06 08:06:14;;;;;;;;;0.25;0.25;;;;;;;;5024222;28;8869;-82
2021/07/06 08:08:42;;;;;;;;;1.00;1.00;;;;;;;;5003265;28;9017;-82
2021/07/06 08:11:09;;;;;;;;;0.75;0.75;;;;;;;;5005244;28;9630;-82
2021/07/06 08:13:39;;;;;;;;;0.50;0.50;;;;;;;;5022447;28;9019;-81
2021/07/06 08:16:06;;;;;;;;;1.00;1.00;;;;;;;;5021838;28;8872;-81
2021/07/06 08:18:34;;;;;;;;;2.00;2.00;;;;;;;;5023168;28;8859;-82
2021/07/06 08:21:02;;;;;;;;;1.00;1.00;;;;;;;;5020884;28;8861;-84
2021/07/06 08:23:29;;;;;;;;;3.00;1.50;;;;;;;;5021488;28;8872;-83
2021/07/06 08:25:56;;;;;;;;;1.00;1.00;;;;;;;;5020446;28;8893;-82
2021/07/06 08:28:26;;;;;;;;;1.00;1.00;;;;;;;;5019851;28;8911;-82
2021/07/06 08:30:55;;;;;;;;;1.00;1.00;;;;;;;;5002263;28;8781;-81
2021/07/06 08:33:23;;;;;;;;;1.50;1.25;;;;;;;;5021854;28;9012;-82
2021/07/06 08:35:50;;;;;;;;;1.00;1.00;;;;;;;;5021823;28;8888;-77
2021/07/06 08:38:19;;;;;;;;;1.25;1.25;;;;;;;;5024874;28;8869;-82
2021/07/06 08:40:50;;;;;;;;;3.00;1.00;;;;;;;;5023298;28;8849;-82
2021/07/06 08:43:18;;;;;;;;;2.50;1.00;;;;;;;;5022405;28;8881;-79
2021/07/06 08:45:46;;;;;;;;;1.00;1.00;;;;;;;;5025586;28;8881;-81
2021/07/06 08:48:16;;;;;;;;;1.00;1.00;;;;;;;;5025172;28;8879;-81
2021/07/06 08:50:46;;;;;;;;;1.00;1.00;;;;;;;;5024206;28;8928;-82
2021/07/06 08:53:13;;;;;;;;;2.25;1.75;;;;;;;;5024944;28;8856;-82
2021/07/06 08:55:41;;;;;;;;;1.00;1.00;;;;;;;;5024363;28;8880;-77
2021/07/06 08:58:08;;;;;;;;;4.00;2.00;;;;;;;;5025555;28;8897;-83
2021/07/06 09:00:35;;;;;;;;;1.00;1.00;;;;;;;;5023401;28;8813;-83
2021/07/06 09:03:04;;;;;;;;;1.00;1.00;;;;;;;;5025875;28;9003;-82
2021/07/06 09:05:33;;;;;;;;;1.60;0.00;;;;;;;;5023441;28;8880;-80
2021/07/06 09:08:01;;;;;;;;;1.75;1.75;;;;;;;;5025438;28;8883;-80
2021/07/06 09:10:34;;;;;;;;;0.80;0.80;;;;;;;;5024232;28;8971;-80
2021/07/06 09:13:01;;;;;;;;;2.40;1.00;;;;;;;;5023749;28;9706;-78
2021/07/06 09:15:31;;;;;;;;;1.00;1.00;;;;;;;;5006118;28;8913;-77
2021/07/06 09:18:09;;;;;;;;;0.80;0.80;;;;;;;;5024628;28;8849;-79
2021/07/06 09:20:39;;;;;;;;;1.80;1.80;;;;;;;;5025214;28;8922;-83
2021/07/06 09:23:21;;;;;;;;;1.50;1.50;;;;;;;;5025432;28;8865;-80
2021/07/06 09:25:50;;;;;;;;;1.00;1.00;;;;;;;;5023179;28;8892;-80
2021/07/06 09:28:24;;;;;;;;;1.00;1.00;;;;;;;;5023111;28;8920;-89
2021/07/06 09:30:52;;;;;;;;;1.20;1.20;;;;;;;;5026115;28;8867;-81
2021/07/06 09:33:29;;;;;;;;;1.40;1.40;;;;;;;;5026405;28;8898;-81
2021/07/06 09:35:58;;;;;;;;;1.00;1.00;;;;;;;;5025409;28;9638;-82
2021/07/06 09:38:25;;;;;;;;;0.00;0.00;;;;;;;;5009929;28;9648;-82
2021/07/06 09:40:52;;;;;;;;;1.00;1.00;;;;;;;;5025413;28;8841;-83
2021/07/06 09:43:23;;;;;;;;;3.00;1.20;;;;;;;;5021182;28;8890;-91
2021/07/06 09:46:03;;;;;;;;;1.00;1.00;;;;;;;;5024647;28;8848;-78
2021/07/06 09:48:31;;;;;;;;;1.60;1.20;;;;;;;;5024275;28;8889;-79
2021/07/06 09:51:14;;;;;;;;;2.00;1.20;;;;;;;;5025077;28;8872;-84
2021/07/06 09:53:42;;;;;;;;;1.00;1.00;;;;;;;;5024378;28;9015;-85
2021/07/06 09:56:11;;;;;;;;;1.20;1.00;;;;;;;;5020471;28;8869;-84
2021/07/06 09:58:53;;;;;;;;;0.80;0.80;;;;;;;;5021736;28;8849;-79
2021/07/06 10:01:20;;;;;;;;;3.00;1.00;;;;;;;;5021822;28;8805;-83
2021/07/06 10:03:50;;;;;;;;;1.40;1.00;;;;;;;;5024000;28;8880;-82
2021/07/06 10:06:20;;;;;;;;;2.00;0.80;;;;;;;;5024637;28;9710;-79
2021/07/06 10:08:49;;;;;;;;;0.60;0.60;;;;;;;;5024655;28;8865;-80
2021/07/06 10:11:16;;;;;;;;;1.20;1.20;;;;;;;;5007600;28;8892;-85
2021/07/06 10:13:44;;;;;;;;;1.00;1.00;;;;;;;;5024683;28;8892;-84
2021/07/06 10:16:11;;;;;;;;;0.60;0.60;;;;;;;;5025810;28;8938;-82
2021/07/06 10:18:39;;;;;;;;;3.80;2.00;;;;;;;;5024882;28;8880;-82
2021/07/06 10:21:06;;;;;;;;;4.00;0.40;;;;;;;;5023652;28;8987;-82
2021/07/06 10:23:36;;;;;;;;;1.80;0.80;;;;;;;;5024072;28;8857;-82
2021/07/06 10:26:06;;;;;;;;;2.00;1.00;;;;;;;;5020343;28;8970;-81
2021/07/06 10:28:33;;;;;;;;;1.00;1.00;;;;;;;;5024569;28;8881;-84
2021/07/06 10:31:16;;;;;;;;;1.40;1.40;;;;;;;;5017732;28;8922;-86
2021/07/06 10:33:44;;;;;;;;;1.00;1.00;;;;;;;;5022450;28;8830;-86
2021/07/06 10:36:12;;;;;;;;;0.00;0.00;;;;;;;;5024401;28;8904;-87
2021/07/06 10:38:45;;;;;;;;;3.00;1.20;;;;;;;;5022695;28;9704;-83
2021/07/06 10:41:15;;;;;;;;;1.80;1.00;;;;;;;;5023330;28;8865;-86
2021/07/06 10:43:56;;;;;;;;;2.20;2.20;;;;;;;;5007171;28;8873;-88
2021/07/06 10:46:45;;;;;;;;;1.60;1.60;;;;;;;;5021818;28;8878;-85
2021/07/06 10:49:15;;;;;;;;;3.40;1.80;;;;;;;;5022561;28;8941;-83
2021/07/06 10:51:49;;;;;;;;;0.20;0.20;;;;;;;;5026826;28;8856;-81
2021/07/06 10:54:25;;;;;;;;;1.60;1.00;;;;;;;;5024261;28;8868;-82
2021/07/06 10:56:54;;;;;;;;;2.00;1.00;;;;;;;;5025057;28;8877;-80
2021/07/06 10:59:22;;;;;;;;;1.00;1.00;;;;;;;;5022886;28;8849;-79
2021/07/06 11:02:07;;;;;;;;;1.00;1.00;;;;;;;;5021713;28;8826;-82
2021/07/06 11:05:11;;;;;;;;;0.80;0.80;;;;;;;;5020366;28;8870;-80
2021/07/06 11:07:52;;;;;;;;;1.00;1.00;;;;;;;;4993994;28;8879;-83
2021/07/06 11:10:22;;;;;;;;;1.00;1.00;;;;;;;;5018437;28;8881;-82
2021/07/06 11:12:51;;;;;;;;;1.20;1.00;;;;;;;;5022518;28;8860;-83
2021/07/06 11:15:25;;;;;;;;;1.00;0.60;;;;;;;;5022000;28;8915;-81
2021/07/06 11:18:04;;;;;;;;;1.00;1.00;;;;;;;;5006981;28;8999;-84
2021/07/06 11:20:34;;;;;;;;;0.00;0.00;;;;;;;;5022910;28;9634;-84
2021/07/06 11:23:02;;;;;;;;;0.00;0.00;;;;;;;;4992748;28;8861;-80
2021/07/06 11:25:39;;;;;;;;;1.00;1.00;;;;;;;;5023436;28;9007;-81
2021/07/06 11:28:09;;;;;;;;;1.00;1.00;;;;;;;;5023675;28;8880;-81
2021/07/06 11:30:40;;;;;;;;;1.00;1.00;;;;;;;;5023553;28;8823;-84
2021/07/06 11:33:09;;;;;;;;;2.00;0.80;;;;;;;;5020759;28;8887;-85
2021/07/06 11:35:38;;;;;;;;;1.00;1.00;;;;;;;;5024627;28;8875;-84
2021/07/06 11:38:08;;;;;;;;;2.00;0.00;;;;;;;;5022459;28;8858;-87
2021/07/06 11:40:38;;;;;;;;;1.00;1.00;;;;;;;;5024185;28;8971;-86
2021/07/06 11:43:06;;;;;;;;;1.00;1.00;;;;;;;;5023445;28;8876;-81
2021/07/06 11:45:34;;;;;;;;;0.00;0.00;;;;;;;;5020862;28;8876;-80
2021/07/06 11:48:10;;;;;;;;;1.00;1.00;;;;;;;;5005400;28;8973;-79
2021/07/06 11:50:38;;;;;;;;;0.00;0.00;;;;;;;;5022745;28;8860;-79
2021/07/06 11:53:05;;;;;;;;;0.80;0.80;;;;;;;;5023673;28;8870;-78
2021/07/06 11:55:34;;;;;;;;;1.00;1.00;;;;;;;;5022467;28;8865;-79
2021/07/06 11:58:05;;;;;;;;;1.00;1.00;;;;;;;;5018404;28;9011;-80
2021/07/06 12:00:37;;;;;;;;;0.00;0.00;;;;;;;;5021162;28;8777;-86
2021/07/06 12:03:18;;;;;;;;;1.00;1.00;;;;;;;;5020433;28;9314;-82
2021/07/06 12:05:46;;;;;;;;;0.40;0.40;;;;;;;;5020643;28;8856;-85
2021/07/06 12:08:19;;;;;;;;;2.20;1.20;;;;;;;;5021550;28;8853;-82
2021/07/06 12:10:57;;;;;;;;;0.00;0.00;;;;;;;;5023090;28;9122;-80
2021/07/06 12:13:27;;;;;;;;;0.80;0.80;;;;;;;;5026347;28;8965;-80
2021/07/06 12:15:56;;;;;;;;;0.40;0.40;;;;;;;;5009739;28;8901;-82
2021/07/06 12:18:23;;;;;;;;;1.00;1.00;;;;;;;;5024401;28;8869;-81
2021/07/06 12:20:58;;;;;;;;;1.00;1.00;;;;;;;;5028263;28;9650;-81
2021/07/06 12:23:26;;;;;;;;;1.00;1.00;;;;;;;;5029544;28;8939;-82
2021/07/06 12:25:56;;;;;;;;;1.80;0.60;;;;;;;;5017039;28;8899;-83
2021/07/06 12:28:25;;;;;;;;;1.00;1.00;;;;;;;;5026590;28;8988;-81
2021/07/06 12:31:14;;;;;;;;;0.00;0.00;;;;;;;;5026823;28;8895;-78
2021/07/06 12:33:41;;;;;;;;;4.00;1.00;;;;;;;;5014390;28;8940;-78
2021/07/06 12:36:09;;;;;;;;;1.00;1.00;;;;;;;;5025911;28;8963;-82
2021/07/06 12:38:36;;;;;;;;;0.80;0.00;;;;;;;;5025089;28;8927;-78
2021/07/06 12:41:19;;;;;;;;;0.00;0.00;;;;;;;;5026163;28;8850;-86
2021/07/06 12:44:03;;;;;;;;;0.00;0.00;;;;;;;;5025844;28;8853;-83
2021/07/06 12:46:30;;;;;;;;;2.00;1.00;;;;;;;;5006123;28;8898;-81
2021/07/06 12:49:00;;;;;;;;;1.00;1.00;;;;;;;;5025292;28;9069;-83
2021/07/06 12:51:27;;;;;;;;;0.60;0.60;;;;;;;;5025247;28;8876;-82
2021/07/06 12:53:58;;;;;;;;;0.20;0.20;;;;;;;;5026875;28;8952;-83
2021/07/06 12:56:28;;;;;;;;;0.00;0.00;;;;;;;;5026970;28;8983;-82
2021/07/06 12:58:55;;;;;;;;;0.60;0.60;;;;;;;;5027202;28;8900;-85
2021/07/06 13:01:34;;;;;;;;;0.40;0.40;;;;;;;;5027541;28;8818;-82
2021/07/06 13:04:02;;;;;;;;;0.60;0.00;;;;;;;;5026805;28;8884;-83
2021/07/06 13:06:29;;;;;;;;;0.00;0.00;;;;;;;;5027861;28;8900;-83
2021/07/06 13:08:56;;;;;;;;;0.00;0.00;;;;;;;;5008734;28;8839;-84
2021/07/06 13:11:26;;;;;;;;;0.20;0.20;;;;;;;;5009804;28;8885;-83
2021/07/06 13:13:54;;;;;;;;;0.00;0.00;;;;;;;;5009008;28;8879;-84
2021/07/06 13:16:31;;;;;;;;;0.00;0.00;;;;;;;;5027253;28;8872;-83
2021/07/06 13:18:59;;;;;;;;;2.20;0.20;;;;;;;;5010746;28;8995;-83
2021/07/06 13:21:28;;;;;;;;;0.60;0.60;;;;;;;;5025225;28;8858;-83
2021/07/06 13:23:57;;;;;;;;;0.00;0.00;;;;;;;;5027212;28;8839;-83
2021/07/06 13:26:25;;;;;;;;;0.00;0.00;;;;;;;;5026000;28;8884;-82
2021/07/06 13:28:52;;;;;;;;;1.60;0.00;;;;;;;;5027157;28;8873;-84
2021/07/06 13:31:23;;;;;;;;;1.40;1.40;;;;;;;;5026024;28;8799;-82
2021/07/06 13:33:50;;;;;;;;;2.00;0.00;;;;;;;;5026757;28;8978;-83
2021/07/06 13:36:19;;;;;;;;;0.00;0.00;;;;;;;;5026661;28;8861;-82
2021/07/06 13:38:46;;;;;;;;;0.20;0.20;;;;;;;;5025388;28;8866;-82
2021/07/06 13:41:13;;;;;;;;;0.40;0.00;;;;;;;;5027042;28;8858;-83
2021/07/06 13:43:41;;;;;;;;;0.00;0.00;;;;;;;;5025320;28;8849;-83
2021/07/06 13:46:08;;;;;;;;;2.40;0.00;;;;;;;;5028190;28;8992;-80
2021/07/06 13:48:35;;;;;;;;;0.00;0.00;;;;;;;;5025817;28;8940;-82
2021/07/06 13:51:03;;;;;;;;;0.00;0.00;;;;;;;;5027235;28;8898;-84
2021/07/06 13:53:32;;;;;;;;;0.40;0.40;;;;;;;;5026456;28;8884;-83
2021/07/06 13:55:59;;;;;;;;;0.00;0.00;;;;;;;;5025778;28;8868;-82
2021/07/06 13:58:26;;;;;;;;;1.00;0.80;;;;;;;;5026589;28;9011;-83
2021/07/06 14:00:55;;;;;;;;;0.00;0.00;;;;;;;;5024459;28;8815;-82
2021/07/06 14:03:22;;;;;;;;;0.00;0.00;;;;;;;;5026536;28;9616;-80
2021/07/06 14:05:50;;;;;;;;;0.00;0.00;;;;;;;;5025802;28;8914;-83
2021/07/06 14:08:18;;;;;;;;;0.00;0.00;;;;;;;;5026033;28;9440;-82
2021/07/06 14:10:47;;;;;;;;;0.40;0.00;;;;;;;;5026104;28;8873;-83
2021/07/06 14:13:14;;;;;;;;;0.00;0.00;;;;;;;;5024935;28;8873;-78
2021/07/06 14:15:42;;;;;;;;;0.00;0.00;;;;;;;;5026273;28;8970;-83
2021/07/06 14:18:09;;;;;;;;;0.00;0.00;;;;;;;;5024983;28;8973;-83
2021/07/06 14:20:36;;;;;;;;;0.00;0.00;;;;;;;;5025879;28;8980;-82
2021/07/06 14:23:06;;;;;;;;;4.60;0.80;;;;;;;;5024023;28;8880;-82
2021/07/06 14:25:34;;;;;;;;;1.80;1.00;;;;;;;;5008893;28;8882;-82
2021/07/06 14:28:03;;;;;;;;;0.00;0.00;;;;;;;;5025739;28;8842;-82
2021/07/06 14:30:32;;;;;;;;;2.00;0.20;;;;;;;;5024288;28;8766;-81
2021/07/06 14:33:00;;;;;;;;;0.00;0.00;;;;;;;;5024899;28;8881;-83
2021/07/06 14:35:27;;;;;;;;;0.20;0.20;;;;;;;;5024647;28;8866;-82
2021/07/06 14:37:56;;;;;;;;;0.80;0.80;;;;;;;;5025402;28;8883;-81
2021/07/06 14:40:24;;;;;;;;;1.00;1.00;;;;;;;;5024387;28;8875;-83
2021/07/06 14:42:51;;;;;;;;;0.00;0.00;;;;;;;;5023243;28;8870;-81
2021/07/06 14:45:20;;;;;;;;;2.00;1.00;;;;;;;;5006345;28;8872;-82
2021/07/06 14:47:48;;;;;;;;;0.00;0.00;;;;;;;;5024447;28;9469;-83
2021/07/06 14:50:17;;;;;;;;;0.60;0.60;;;;;;;;5025385;28;8894;-81
2021/07/06 14:52:44;;;;;;;;;1.00;1.00;;;;;;;;5024848;28;8876;-82
2021/07/06 14:55:13;;;;;;;;;0.00;0.00;;;;;;;;5025376;28;8939;-80
2021/07/06 14:57:40;;;;;;;;;1.60;1.20;;;;;;;;5006293;28;8913;-80
2021/07/06 15:00:10;;;;;;;;;0.00;0.00;;;;;;;;5024327;28;8977;-81
2021/07/06 15:02:40;;;;;;;;;0.00;0.00;;;;;;;;5007144;28;8870;-83
2021/07/06 15:05:08;;;;;;;;;0.00;0.00;;;;;;;;5024524;28;8880;-83
2021/07/06 15:07:37;;;;;;;;;0.20;0.20;;;;;;;;5025457;28;8886;-81
2021/07/06 15:10:05;;;;;;;;;0.00;0.00;;;;;;;;5024093;28;8878;-83
2021/07/06 15:12:32;;;;;;;;;1.00;1.00;;;;;;;;5025155;28;8900;-82
2021/07/06 15:15:00;;;;;;;;;0.60;0.60;;;;;;;;5023691;28;8983;-80